CGX weather

Public forecast

Using degrees Fahrenheit for public forecast. Weather courtesy of forecast.io.

Closest aviation weather report (METAR) to Chicago Meigs Airport

Closest report is Chicago Midway International Airport, 7.8 nm (14.5 km) SW. Retrieved 2020/08/11 14:53 UTC (40 minutes ago):

KMDW 111453Z 06009KT 10SM FEW030 FEW050 SCT250 25/13 A3000 RMK AO2 SLP150 T02500128 52016

Closest aviation forecast (TAF) to Chicago Meigs Airport

Closest forecast is Chicago Midway International Airport, 7.8 nm (14.5 km) SW. Retrieved 2020/08/11 12:22 UTC (3 hours ago):

TAF KMDW 111120Z 1112/1218 34007KT P6SM FEW030 SCT250 FM111600 05010KT P6SM FEW300 FM120400 25003KT P6SM FEW300 FM121400 08008KT P6SM SKC